Latest Coastal Weather Observations for Esperance

IDW60701

Issued at 3:55 pm WST Wednesday 26 November 2014 (issued every 10 minutes, with the page automatically refreshed every 10 minutes)

About coastal observations | Map of coastal stations | Coastal observations for WA | Marine services | Other Formats
Station Details ID: 009789 Name: ESPERANCE Lat: -33.83 Lon: 121.89 Height: 25.0 m
Data from the previous 72 hours. | See also: Recent months at Esperance
Date/Time
WST
Temp

°C
Wind Pressure Rain
since 9am
mm
Weather Cloud Vis
km
Sea
Height
m
Swell
Dir
 
Speed
knots
Gust
knots
hPa Trend Height
m
Period
s
Dir
26/03:30pm 22.1 ESE 17 26 1016.3 - 0.0 - - 10 - - - -
26/03:00pm 22.2 ESE 17 25 1016.6 F 0.0 Haze Partly cloudy 22 - - - -
26/02:49pm 22.4 SE 17 27 1016.8 - 0.0 - - 10 - - - -
26/02:30pm 22.7 SE 16 22 1017.0 - 0.0 - - 10 - - - -
26/02:00pm 22.9 ESE 17 22 1017.4 - 0.0 - - 10 - - - -
26/01:30pm 22.8 ESE 16 21 1017.8 - 0.0 - - 10 - - - -
26/01:00pm 23.2 ESE 17 24 1017.9 - 0.0 - - 10 - - - -
26/12:30pm 21.9 ESE 17 25 1018.4 - 0.0 - - 10 - - - -
26/12:00pm 22.8 ESE 16 22 1018.9 F 0.0 Fine Partly cloudy 30 - - - -
26/11:30am 25.9 E 7 13 1019.4 - 0.0 - - 10 - - - -
26/11:00am 24.5 ENE 11 15 1020.1 - 0.0 - - 10 - - - -
26/10:30am 23.8 E 9 16 1020.7 - 0.0 - Mostly clear 10 - - - -
26/10:00am 23.5 ENE 8 15 1021.1 - 0.0 - - 10 - - - -
26/09:30am 22.5 E 9 15 1021.5 - 0.0 - - 10 - - - -
26/09:00am 21.7 E 9 11 1021.7 F 0.0 Fine Mostly clear 30 - - - -
26/08:30am 20.3 NE 9 15 1021.9 - 0.0 - Mostly clear 10 - - - -
26/08:00am 19.4 ENE 10 16 1022.0 - 0.0 - Mostly clear 10 - - - -
26/07:30am 18.3 NE 9 16 1022.4 - 0.0 - Mostly clear 10 - - - -
26/07:00am 16.9 ENE 6 9 1022.3 - 0.0 - Mostly clear 10 - - - -
26/06:30am 16.1 ENE 4 8 1022.5 - 0.0 - - 10 - - - -
26/06:00am 14.2 E 6 9 1022.3 F 0.0 Fine Mostly clear 30 - - - -
26/05:30am 12.9 E 6 9 1022.3 - 0.0 - - 10 - - - -
26/05:00am 12.0 ENE 7 9 1022.0 - 0.0 - - 10 - - - -
26/04:30am 11.9 E 7 11 1021.7 - 0.0 - - 10 - - - -
26/04:00am 11.7 ENE 5 7 1021.7 - 0.0 - - 10 - - - -
26/03:30am 11.9 E 5 8 1021.6 - 0.0 - - 10 - - - -
26/03:00am 12.2 E 6 8 1021.6 R 0.0 - - 10 - - - -
26/02:30am 12.4 E 6 9 1021.3 - 0.0 - - 10 - - - -
26/02:00am 12.5 E 5 8 1021.5 - 0.0 - - 10 - - - -
26/01:30am 12.8 E 5 7 1021.7 - 0.0 - - 10 - - - -
26/01:00am 12.9 E 5 7 1021.9 - 0.0 - - 10 - - - -
26/12:30am 13.2 E 5 7 1022.0 - 0.0 - - 10 - - - -
26/12:00am 13.6 E 5 8 1022.0 S 0.0 - - 10 - - - -
 
Date/Time
WST
Temp

°C
Wind Pressure Rain
since 9am
mm
Weather Cloud Vis
km
Sea
Height
m
Swell
Dir
 
Speed
knots
Gust
knots
hPa Trend Height
m
Period
s
Dir
25/11:30pm 13.8 ENE 6 11 1022.2 - 0.0 - - 10 - - - -
25/11:00pm 14.2 E 7 10 1022.3 - 0.0 - - 10 - - - -
25/10:30pm 14.6 E 7 11 1022.5 - 0.0 - - 10 - - - -
25/10:00pm 14.6 ENE 7 11 1022.5 - 0.0 - - 10 - - - -
25/09:30pm 14.9 E 8 11 1022.4 - 0.0 - - 10 - - - -
25/09:00pm 15.3 E 8 12 1022.5 F 0.0 - - 10 - - - -
25/08:30pm 15.9 E 10 14 1022.6 - 0.0 - - 10 - - - -
25/08:00pm 16.2 E 10 18 1022.6 - 0.0 - Mostly clear 10 - - - -
25/07:30pm 16.6 E 12 17 1022.6 - 0.0 - Mostly clear 10 - - - -
25/07:00pm 16.8 ESE 13 21 1022.5 - 0.0 - Mostly clear 10 - - - -
25/06:30pm 17.3 ESE 16 23 1022.3 - 0.0 - Mostly clear 10 - - - -
25/06:00pm 17.7 ESE 14 21 1022.0 F 0.0 Fine Partly cloudy 30 - - - -
25/05:30pm 18.1 ESE 15 21 1021.7 - 0.0 - - 10 - - - -
25/05:00pm 18.6 SE 15 22 1021.3 - 0.0 - Mostly clear 10 - - - -
25/04:30pm 19.4 SE 15 24 1021.2 - 0.0 - Mostly clear 10 - - - -
25/04:00pm 19.8 SE 16 23 1021.4 - 0.0 - Mostly clear 10 - - - -
25/03:30pm 19.3 SE 17 22 1021.6 - 0.0 - Mostly clear 10 - - - -
25/03:00pm 19.3 SE 17 21 1021.6 F 0.0 Fine Partly cloudy 30 - - - -
25/02:30pm 18.8 SE 16 23 1021.7 - 0.0 - Mostly clear 10 - - - -
25/02:00pm 19.5 SE 17 21 1021.5 - 0.0 - Mostly clear 10 - - - -
25/01:30pm 19.2 SE 16 22 1022.0 - 0.0 - Mostly clear 10 - - - -
25/01:00pm 19.6 SSE 15 21 1022.1 - 0.0 - Mostly clear 10 - - - -
25/12:30pm 19.4 SSE 17 22 1022.5 - 0.0 - Mostly clear 10 - - - -
25/12:00pm 20.3 SE 15 20 1022.8 F 0.0 Fine Partly cloudy 30 - - - -
25/11:30am 19.4 SSE 15 19 1023.0 - 0.0 - Mostly clear 10 - - - -
25/11:00am 20.2 SSE 12 16 1023.4 - 0.0 - Mostly clear 10 - - - -
25/10:30am 20.0 SSE 10 14 1023.5 - 0.0 - Mostly clear 10 - - - -
25/10:00am 20.0 SE 10 13 1023.8 - 0.0 - Mostly clear 10 - - - -
25/09:30am 19.2 SSE 10 13 1024.2 - 0.0 - Mostly clear 10 - - - -
25/09:00am 19.9 E 7 11 1024.3 F 0.0 Fine Partly cloudy 30 - - - -
25/08:30am 19.1 NE 6 10 1024.4 - 0.0 - Mostly clear 10 - - - -
25/08:00am 18.0 E 8 11 1024.6 - 0.0 - Mostly clear 10 - - - -
25/07:30am 17.2 NE 8 11 1024.9 - 0.0 - Mostly clear 10 - - - -
25/07:06am 16.4 NE 5 9 1024.9 - 0.0 - Mostly clear 10 - - - -
25/07:00am 15.7 NE 6 9 1024.8 - 0.0 - Partly cloudy 10 - - - -
25/06:30am 13.4 NNE 5 8 1024.9 - 0.0 - Mostly clear 10 - - - -
25/06:00am 11.9 NNE 5 6 1024.7 R 0.0 Fine Mostly cloudy 30 - - - -
25/05:30am 11.2 N 5 6 1024.5 - 0.0 - - 10 - - - -
25/05:00am 10.5 NNE 5 7 1024.3 - 0.0 - - 10 - - - -
25/04:30am 10.4 NNE 5 6 1024.0 - 0.0 - - 10 - - - -
25/04:00am 10.1 N 4 5 1023.8 - 0.0 - - 10 - - - -
25/03:30am 10.4 N 5 7 1023.7 - 0.0 - - 10 - - - -
25/03:00am 10.7 N 4 5 1023.7 R 0.0 - - 10 - - - -
25/02:30am 11.1 NNE 5 7 1023.6 - 0.0 - - 10 - - - -
25/02:00am 11.3 NNE 6 7 1023.6 - 0.0 - - 10 - - - -
25/01:30am 11.2 NNE 6 8 1023.8 - 0.0 - - 10 - - - -
25/01:00am 11.4 N 6 8 1023.9 - 0.0 - - 10 - - - -
25/12:30am 11.6 NNE 5 7 1023.9 - 0.0 - - 10 - - - -
25/12:00am 11.9 NNE 4 5 1024.2 R 0.0 - - 10 - - - -
 
Date/Time
WST
Temp

°C
Wind Pressure Rain
since 9am
mm
Weather Cloud Vis
km
Sea
Height
m
Swell
Dir
 
Speed
knots
Gust
knots
hPa Trend Height
m
Period
s
Dir
24/11:30pm 12.0 NNE 4 5 1024.5 - 0.0 - - 10 - - - -
24/11:00pm 12.7 ENE 4 5 1024.8 - 0.0 - Partly cloudy 10 - - - -
24/10:30pm 12.4 ENE 5 6 1024.9 - 0.0 - - 10 - - - -
24/10:00pm 13.8 E 5 8 1024.9 - 0.0 - - 10 - - - -
24/09:30pm 15.0 E 8 13 1024.8 - 0.0 - - 10 - - - -
24/09:00pm 15.0 ESE 9 14 1024.6 S 0.0 - Mostly clear 10 - - - -
24/08:30pm 15.3 ESE 8 13 1024.4 - 0.0 - Partly cloudy 10 - - - -
24/08:00pm 15.5 SE 11 14 1024.3 - 0.0 - Mostly clear 10 - - - -
24/07:30pm 15.6 SE 11 15 1024.1 - 0.0 - Mostly clear 10 - - - -
24/07:00pm 15.7 SE 10 15 1023.8 - 0.0 - Mostly clear 10 - - - -
24/06:30pm 15.8 SE 12 17 1023.6 - 0.0 - Mostly clear 10 - - - -
24/06:00pm 16.1 SE 12 15 1023.3 F 0.0 Fine Mostly clear 30 - - - -
24/05:30pm 16.4 SSE 12 17 1022.9 - 0.0 - Mostly clear 10 - - - -
24/05:00pm 16.9 SSE 13 17 1022.8 - 0.0 - Mostly clear 10 - - - -
24/04:30pm 17.3 SSE 12 15 1022.6 - 0.0 - Mostly clear 10 - - - -
24/04:00pm 17.3 SSE 12 16 1022.7 - 0.0 - Mostly clear 10 - - - -
24/03:30pm 17.3 SSE 12 16 1022.6 - 0.0 - Mostly clear 10 - - - -
24/03:00pm 17.3 SSE 11 17 1022.7 R 0.0 Fine Mostly clear 30 - - - -
24/02:30pm 18.2 SSE 11 17 1022.8 - 0.0 - Mostly clear 10 - - - -
24/02:00pm 17.9 SSE 11 15 1022.9 - 0.0 - Mostly clear 10 - - - -
24/01:30pm 18.2 S 11 16 1022.9 - 0.0 - Mostly clear 10 - - - -
24/01:00pm 18.1 SE 11 15 1023.0 - 0.0 - Mostly clear 10 - - - -
24/12:30pm 17.9 S 11 17 1023.1 - 0.0 - Mostly clear 10 - - - -
24/12:00pm 17.7 SSE 11 15 1023.4 R 0.0 Fine Partly cloudy 30 - - - -
24/11:30am 17.9 SSE 10 15 1023.5 - 0.0 - - 10 - - - -
24/11:00am 17.7 SSE 10 14 1023.8 - 0.0 - Partly cloudy 10 - - - -
24/10:30am 17.2 SSE 9 14 1024.0 - 0.0 - Mostly cloudy 10 - - - -
24/10:00am 17.5 SSE 9 12 1024.1 - 0.0 - Cloudy 10 - - - -
24/09:30am 17.0 SSE 9 13 1024.0 - 0.0 - Cloudy 10 - - - -
24/09:00am 16.6 S 8 12 1024.0 R 0.0 Fine Mostly cloudy 30 - - - -
24/08:30am 16.4 S 8 11 1023.8 - 0.0 - Cloudy 10 - - - -
24/08:00am 16.2 S 9 13 1023.8 - 0.0 - Mostly clear 10 - - - -
24/07:30am 16.0 S 8 11 1023.3 - 0.0 - Mostly clear 10 - - - -
24/07:00am 15.9 S 10 14 1023.0 - 0.0 - Mostly clear 10 - - - -
24/06:30am 16.3 S 7 11 1022.7 - 0.0 - Mostly clear 10 - - - -
24/06:00am 14.5 SW 5 6 1022.4 R 0.0 Fine Partly cloudy 30 - - - -
24/05:30am 14.2 SSW 6 8 1022.0 - 0.0 - Partly cloudy 10 - - - -
24/05:00am 14.5 S 8 14 1021.7 - 0.0 - Partly cloudy 10 - - - -
24/04:30am 13.6 SSW 6 10 1021.3 - 0.0 - Partly cloudy 10 - - - -
24/04:00am 13.2 SW 5 7 1021.0 - 0.0 - Partly cloudy 10 - - - -
24/03:30am 13.6 SSW 5 7 1020.8 - 0.0 - Partly cloudy 10 - - - -
24/03:00am 14.1 S 7 10 1020.7 R 0.0 - Mostly cloudy 10 - - - -
24/02:30am 14.2 S 7 11 1020.7 - 0.0 - Partly cloudy 10 - - - -
24/02:00am 14.5 S 8 13 1020.5 - 0.0 - Partly cloudy 10 - - - -
24/01:30am 14.5 S 9 12 1020.5 - 0.0 - Partly cloudy 10 - - - -
24/01:00am 14.5 S 8 12 1020.5 - 0.0 - Partly cloudy 10 - - - -
24/12:30am 14.7 S 9 14 1020.5 - 0.0 - Partly cloudy 10 - - - -
24/12:00am 14.6 SSW 7 11 1020.6 R 0.0 - Cloudy 10 - - - -
 
Date/Time
WST
Temp

°C
Wind Pressure Rain
since 9am
mm
Weather Cloud Vis
km
Sea
Height
m
Swell
Dir
 
Speed
knots
Gust
knots
hPa Trend Height
m
Period
s
Dir
23/11:30pm 14.4 SSW 8 12 1020.6 - 0.0 - Partly cloudy 10 - - - -
23/11:00pm 14.6 S 10 15 1020.6 - 0.0 - Partly cloudy 10 - - - -
23/10:30pm 14.7 SSW 10 15 1020.5 - 0.0 - Partly cloudy 10 - - - -
23/10:00pm 14.9 S 11 16 1020.3 - 0.0 - Partly cloudy 10 - - - -
23/09:30pm 14.6 SSW 9 13 1020.3 - 0.0 - Partly cloudy 10 - - - -
23/09:00pm 14.9 SSW 11 16 1020.2 R 0.0 - Cloudy 10 - - - -
23/08:30pm 14.8 S 9 13 1019.8 - 0.0 - Partly cloudy 10 - - - -
23/08:00pm 14.7 S 10 15 1019.4 - 0.0 - Partly cloudy 10 - - - -
23/07:30pm 14.8 S 9 17 1019.0 - 0.0 - Mostly clear 10 - - - -
23/07:00pm 15.1 S 13 18 1018.6 - 0.0 - Mostly clear 10 - - - -
23/06:30pm 15.5 S 12 19 1018.1 - 0.0 - Mostly clear 10 - - - -
23/06:00pm 15.7 SSW 13 19 1017.6 R 0.0 Haze Partly cloudy 20 - - - -
23/05:30pm 15.9 SSW 15 25 1017.0 - 0.0 - Partly cloudy 10 - - - -
23/05:00pm 16.5 SSW 11 18 1016.6 - 0.0 - Mostly clear 10 - - - -
23/04:30pm 16.9 SSW 15 25 1016.1 - 0.0 - Mostly clear 10 - - - -
23/04:17pm 16.9 SSW 15 25 1015.9 - 0.0 - Partly cloudy 10 - - - -
23/04:00pm 17.2 SSW 13 23 1015.8 - 0.0 - Partly cloudy 10 - - - -

Other Formats:

Comma delimited format used in spreadsheet applications
http://www.bom.gov.au/fwo/IDW60701/IDW60701.94638.axf

JavaScript Object Notation format (JSON) in row-major order
http://www.bom.gov.au/fwo/IDW60701/IDW60701.94638.json